Aviation Digital Data Service (ADDS)

Output produced by METARs form (0948 UTC 22 August 2014)
found at http://aviationweather.gov/adds/metars/
 
KGFL 220807Z 2208/2306 VRB03KT 6SM BR VCSH SCT025 OVC040 
     TEMPO 2208/2212 4SM -SHRA BR BKN025 OVC040 
     FM221200 06004KT 4SM -DZ BR BKN008 OVC015 
     FM221900 08005KT P6SM VCSH BKN025 OVC035